Time;durP1;ratioP1;P1;durP2;ratioP2;P2;SDS_P1;SDS_P2;PMS_P1;PMS_P2;Temp;Humidity;BMP_temperature;BMP_pressure;BME280_temperature;BME280_humidity;BME280_pressure;Samples;Min_cycle;Max_cycle;Signal;HPM_P1;HPM_P2
2023/06/20 00:00:07;;;;;;;6.18;3.47;;;;;;;19.53;100.00;96462.25;5021062;28;20129;-68
2023/06/20 00:02:32;;;;;;;5.43;3.42;;;;;;;19.44;100.00;96451.72;5023100;28;20120;-67
2023/06/20 00:05:00;;;;;;;4.80;3.63;;;;;;;19.56;100.00;96447.50;5024712;28;20315;-67
2023/06/20 00:07:25;;;;;;;7.70;4.05;;;;;;;19.73;100.00;96456.66;5021041;28;20483;-69
2023/06/20 00:09:51;;;;;;;5.78;3.55;;;;;;;19.88;100.00;96481.31;5033313;28;20053;-70
2023/06/20 00:12:16;;;;;;;9.20;3.65;;;;;;;19.87;100.00;96483.31;5021662;28;20048;-71
2023/06/20 00:14:42;;;;;;;6.45;3.70;;;;;;;19.78;100.00;96499.81;5025685;28;20049;-70
2023/06/20 00:17:07;;;;;;;5.75;3.88;;;;;;;19.59;100.00;96516.09;5017742;28;20080;-69
2023/06/20 00:19:32;;;;;;;5.35;3.78;;;;;;;19.34;100.00;96513.06;5021714;28;20073;-69
2023/06/20 00:21:58;;;;;;;6.78;3.75;;;;;;;19.39;100.00;96515.34;5022520;28;20038;-71
2023/06/20 00:24:23;;;;;;;8.27;4.22;;;;;;;19.43;100.00;96516.84;5017156;28;20515;-70
2023/06/20 00:26:48;;;;;;;5.78;4.50;;;;;;;19.27;100.00;96519.56;5023325;28;20044;-70
2023/06/20 00:29:14;;;;;;;7.18;5.25;;;;;;;19.25;100.00;96522.00;5017596;28;20402;-70
2023/06/20 00:31:39;;;;;;;10.05;5.18;;;;;;;19.25;100.00;96535.88;5022702;28;20061;-71
2023/06/20 00:34:04;;;;;;;7.55;5.32;;;;;;;19.27;100.00;96525.13;5022890;28;20064;-72
2023/06/20 00:36:30;;;;;;;7.82;5.22;;;;;;;19.29;100.00;96536.56;5028254;28;20052;-71
2023/06/20 00:38:55;;;;;;;8.13;5.38;;;;;;;19.30;100.00;96538.13;5021525;28;20123;-71
2023/06/20 00:41:21;;;;;;;6.72;5.20;;;;;;;19.25;100.00;96533.09;5027232;28;21881;-70
2023/06/20 00:43:48;;;;;;;9.35;5.22;;;;;;;19.23;100.00;96543.81;5029203;28;20076;-71
2023/06/20 00:46:23;;;;;;;8.45;5.93;;;;;;;19.13;100.00;96542.84;5019522;28;20045;-70
2023/06/20 00:48:49;;;;;;;9.10;5.80;;;;;;;18.98;100.00;96530.44;5020388;28;20068;-70
2023/06/20 00:51:21;;;;;;;10.40;6.07;;;;;;;19.13;100.00;96523.41;5016920;28;20048;-70
2023/06/20 00:53:47;;;;;;;7.20;5.72;;;;;;;19.20;100.00;96530.81;5024575;28;20049;-70
2023/06/20 00:56:13;;;;;;;9.20;5.70;;;;;;;19.14;100.00;96533.31;5000618;28;20402;-70
2023/06/20 00:58:39;;;;;;;9.63;5.90;;;;;;;19.22;100.00;96545.81;5021829;28;20048;-69
2023/06/20 01:01:05;;;;;;;10.23;6.30;;;;;;;19.21;100.00;96547.06;5019045;28;20037;-69
2023/06/20 01:03:32;;;;;;;8.40;5.78;;;;;;;19.15;100.00;96570.19;5017538;28;20095;-68
2023/06/20 01:06:21;;;;;;;8.15;6.32;;;;;;;19.13;100.00;96578.16;5022129;28;20443;-68
2023/06/20 01:09:02;;;;;;;12.23;6.22;;;;;;;18.99;100.00;96593.84;5001324;28;20042;-69
2023/06/20 01:11:29;;;;;;;8.30;6.15;;;;;;;18.97;100.00;96601.81;5018217;28;20056;-69
2023/06/20 01:14:08;;;;;;;11.00;6.28;;;;;;;19.06;100.00;96602.03;5022233;28;20049;-68
2023/06/20 01:16:46;;;;;;;11.00;5.68;;;;;;;19.01;100.00;96599.75;5021038;28;20048;-69
2023/06/20 01:19:20;;;;;;;9.25;6.45;;;;;;;19.05;100.00;96608.81;5010847;28;20044;-69
2023/06/20 01:21:52;;;;;;;11.45;6.28;;;;;;;19.04;100.00;96604.47;5021437;28;20385;-69
2023/06/20 01:24:43;;;;;;;9.10;6.13;;;;;;;19.04;100.00;96598.13;5016270;28;20051;-69
2023/06/20 01:27:17;;;;;;;12.63;6.90;;;;;;;19.06;100.00;96599.25;5016679;28;20044;-68
2023/06/20 01:30:09;;;;;;;9.50;6.40;;;;;;;19.12;100.00;96591.22;5022339;28;20048;-68
2023/06/20 01:32:40;;;;;;;7.93;5.32;;;;;;;19.12;100.00;96593.22;5020778;28;20037;-69
2023/06/20 01:35:09;;;;;;;9.82;6.07;;;;;;;19.23;100.00;96594.59;5016759;28;20410;-69
2023/06/20 01:37:38;;;;;;;18.92;8.70;;;;;;;19.28;100.00;96605.22;5021273;28;20052;-69
2023/06/20 01:40:08;;;;;;;10.38;5.88;;;;;;;19.24;100.00;96612.03;5016649;28;20038;-71
2023/06/20 01:42:35;;;;;;;9.57;5.83;;;;;;;19.04;100.00;96609.25;5021430;28;20037;-70
2023/06/20 01:45:04;;;;;;;10.88;6.32;;;;;;;18.93;100.00;96598.34;5022340;28;20466;-70
2023/06/20 01:47:34;;;;;;;8.45;5.30;;;;;;;19.01;100.00;96588.66;5020385;28;20038;-70
2023/06/20 01:50:01;;;;;;;8.30;5.72;;;;;;;18.97;100.00;96587.94;5025700;28;20037;-70
2023/06/20 01:52:29;;;;;;;8.20;5.28;;;;;;;18.98;100.00;96588.72;5022636;28;20092;-68
2023/06/20 01:54:57;;;;;;;6.18;4.82;;;;;;;18.95;100.00;96595.13;5025513;28;20060;-70
2023/06/20 01:57:24;;;;;;;7.03;5.10;;;;;;;18.93;100.00;96590.00;5018671;28;20573;-71
2023/06/20 01:59:50;;;;;;;6.20;4.13;;;;;;;18.77;100.00;96585.09;5026074;28;20037;-71
2023/06/20 02:02:16;;;;;;;6.60;4.72;;;;;;;18.80;100.00;96583.47;5019804;28;20038;-70
2023/06/20 02:04:43;;;;;;;6.82;4.57;;;;;;;18.79;100.00;96568.03;5025699;28;20048;-68
2023/06/20 02:07:09;;;;;;;10.82;4.95;;;;;;;18.81;100.00;96569.19;5019586;28;20046;-69
2023/06/20 02:09:38;;;;;;;8.32;5.18;;;;;;;18.55;100.00;96570.84;5024996;28;20041;-69
2023/06/20 02:12:06;;;;;;;10.57;5.70;;;;;;;18.30;100.00;96569.25;5021172;28;20534;-70
2023/06/20 02:14:32;;;;;;;9.73;4.70;;;;;;;18.09;100.00;96558.50;5024070;28;20033;-69
2023/06/20 02:17:01;;;;;;;6.32;4.88;;;;;;;18.07;100.00;96556.16;5025280;28;20045;-68
2023/06/20 02:19:26;;;;;;;10.10;5.45;;;;;;;18.34;100.00;96569.19;5020234;28;20053;-68
2023/06/20 02:21:55;;;;;;;7.28;5.47;;;;;;;18.51;100.00;96570.91;5023189;28;20033;-67
2023/06/20 02:24:22;;;;;;;10.43;5.97;;;;;;;18.66;100.00;96576.19;5019364;28;20614;-68
2023/06/20 02:26:49;;;;;;;10.13;5.20;;;;;;;18.67;100.00;96567.47;5024758;28;20041;-68
2023/06/20 02:29:15;;;;;;;13.82;7.90;;;;;;;18.86;100.00;96581.81;5019507;28;20041;-68
2023/06/20 02:31:46;;;;;;;7.07;5.57;;;;;;;18.75;100.00;96581.97;5024668;28;20375;-68
2023/06/20 02:34:15;;;;;;;9.25;5.38;;;;;;;18.48;100.00;96587.59;5018618;28;20033;-69
2023/06/20 02:36:43;;;;;;;9.95;5.95;;;;;;;18.30;100.00;96596.22;5024142;28;20038;-68
2023/06/20 02:39:08;;;;;;;11.00;6.75;;;;;;;18.02;100.00;96589.88;5018017;28;20148;-68
2023/06/20 02:41:34;;;;;;;10.20;5.93;;;;;;;17.77;100.00;96592.97;5024831;28;20132;-67
2023/06/20 02:43:59;;;;;;;8.90;6.38;;;;;;;17.83;100.00;96599.63;5023887;28;20037;-67
2023/06/20 02:47:15;;;;;;;9.20;7.18;;;;;;;17.82;100.00;96600.81;5020165;28;20390;-68
2023/06/20 02:50:07;;;;;;;10.45;7.07;;;;;;;17.88;100.00;96595.63;5025240;28;20141;-69
2023/06/20 02:52:50;;;;;;;11.68;7.60;;;;;;;17.90;100.00;96598.78;5023559;28;20103;-68
2023/06/20 02:55:27;;;;;;;10.63;7.60;;;;;;;17.93;100.00;96609.03;5019891;28;20513;-67
2023/06/20 02:57:58;;;;;;;8.52;6.63;;;;;;;18.05;100.00;96611.22;5023475;28;20136;-69
2023/06/20 03:00:25;;;;;;;8.38;6.95;;;;;;;18.22;100.00;96603.06;5019115;28;20503;-68
2023/06/20 03:03:11;;;;;;;9.80;7.07;;;;;;;18.12;100.00;96604.78;5023147;28;20065;-68
2023/06/20 03:05:42;;;;;;;10.13;7.38;;;;;;;18.12;100.00;96600.03;5024459;28;20037;-68
2023/06/20 03:08:08;;;;;;;11.20;7.38;;;;;;;17.92;100.00;96596.38;5020379;28;20072;-67
2023/06/20 03:10:35;;;;;;;11.18;7.45;;;;;;;17.86;100.00;96598.84;5023507;28;20108;-68
2023/06/20 03:13:02;;;;;;;10.02;6.90;;;;;;;17.98;100.00;96593.94;5023710;28;20045;-67
2023/06/20 03:15:28;;;;;;;10.52;7.07;;;;;;;17.87;100.00;96597.63;5023297;28;20057;-67
2023/06/20 03:17:53;;;;;;;10.43;8.00;;;;;;;17.74;100.00;96602.13;5008609;28;20076;-68
2023/06/20 03:20:20;;;;;;;11.73;7.68;;;;;;;17.73;100.00;96597.78;5021763;28;20449;-68
2023/06/20 03:22:45;;;;;;;11.15;7.60;;;;;;;17.74;100.00;96602.13;5023393;28;20072;-67
2023/06/20 03:25:10;;;;;;;11.35;8.35;;;;;;;17.68;100.00;96576.91;4999888;28;20076;-67
2023/06/20 03:27:36;;;;;;;13.40;9.02;;;;;;;17.54;100.00;96569.56;5017055;28;20041;-69
2023/06/20 03:30:03;;;;;;;14.32;9.20;;;;;;;17.58;100.00;96573.06;5006633;28;20045;-68
2023/06/20 03:32:29;;;;;;;16.85;10.25;;;;;;;17.57;100.00;96574.28;5002442;28;20077;-67
2023/06/20 03:34:55;;;;;;;13.00;9.95;;;;;;;17.62;100.00;96584.09;5004479;28;20119;-68
2023/06/20 03:37:20;;;;;;;12.27;8.95;;;;;;;17.78;100.00;96575.94;5018520;28;20045;-67
2023/06/20 03:39:46;;;;;;;20.83;8.90;;;;;;;17.74;100.00;96560.59;5023051;28;20034;-68
2023/06/20 03:42:11;;;;;;;10.85;8.57;;;;;;;17.64;100.00;96565.06;5017670;28;20044;-67
2023/06/20 03:44:36;;;;;;;15.40;9.82;;;;;;;17.73;100.00;96579.19;5022823;28;20045;-67
2023/06/20 03:47:02;;;;;;;13.48;9.43;;;;;;;17.76;100.00;96577.56;5021865;28;20038;-70
2023/06/20 03:49:27;;;;;;;14.63;9.43;;;;;;;17.64;100.00;96562.28;5019936;28;20049;-66
2023/06/20 03:51:52;;;;;;;12.63;9.75;;;;;;;17.70;100.00;96563.41;5022955;28;20075;-67
2023/06/20 03:54:18;;;;;;;14.73;10.07;;;;;;;17.68;100.00;96554.75;5018198;28;20046;-67
2023/06/20 03:56:43;;;;;;;15.02;9.55;;;;;;;17.62;100.00;96550.06;5023850;28;20088;-68
2023/06/20 03:59:08;;;;;;;13.95;10.07;;;;;;;17.74;100.00;96574.44;5018738;28;20049;-68
2023/06/20 04:01:34;;;;;;;15.50;10.52;;;;;;;17.69;100.00;96569.38;5023457;28;20042;-67
2023/06/20 04:03:59;;;;;;;13.40;10.15;;;;;;;17.61;100.00;96551.25;5023005;28;20132;-67
2023/06/20 04:06:29;;;;;;;16.23;11.63;;;;;;;17.53;100.00;96536.75;5017244;28;20052;-68
2023/06/20 04:08:55;;;;;;;16.52;11.40;;;;;;;17.54;100.00;96527.25;5022865;28;20041;-68
2023/06/20 04:11:21;;;;;;;17.52;11.80;;;;;;;17.62;100.00;96523.16;5017136;28;20045;-67
2023/06/20 04:13:46;;;;;;;14.85;11.77;;;;;;;17.61;100.00;96529.91;5005165;28;20048;-67
2023/06/20 04:16:11;;;;;;;18.90;11.75;;;;;;;17.64;100.00;96537.38;5012847;28;20087;-69
2023/06/20 04:18:37;;;;;;;17.75;11.60;;;;;;;17.61;100.00;96527.16;5022556;28;20120;-66
2023/06/20 04:21:02;;;;;;;15.73;12.02;;;;;;;17.58;100.00;96530.75;5020255;28;20042;-69
2023/06/20 04:23:27;;;;;;;13.82;11.75;;;;;;;17.61;100.00;96521.59;5018833;28;20147;-67
2023/06/20 04:25:53;;;;;;;14.90;11.80;;;;;;;17.61;100.00;96527.16;5022574;28;20042;-66
2023/06/20 04:28:18;;;;;;;15.20;11.88;;;;;;;17.68;100.00;96527.03;5017176;28;20164;-67
2023/06/20 04:30:44;;;;;;;16.02;12.13;;;;;;;17.61;100.00;96512.50;5004828;28;20050;-67
2023/06/20 04:33:16;;;;;;;16.95;11.82;;;;;;;17.60;100.00;96522.03;5030677;28;20416;-67
2023/06/20 04:35:41;;;;;;;18.23;12.10;;;;;;;17.67;100.00;96519.94;5032299;28;20052;-66
2023/06/20 04:38:07;;;;;;;16.25;12.90;;;;;;;17.70;100.00;96518.28;5029132;28;20376;-67
2023/06/20 04:40:32;;;;;;;17.17;13.40;;;;;;;17.75;100.00;96526.13;5017921;28;20046;-68
2023/06/20 04:42:57;;;;;;;16.70;12.55;;;;;;;17.74;100.00;96522.59;5018799;28;20037;-67
2023/06/20 04:45:23;;;;;;;16.63;11.73;;;;;;;17.78;100.00;96522.53;5029624;28;20100;-67
2023/06/20 04:47:52;;;;;;;15.85;11.55;;;;;;;17.91;100.00;96520.00;5019472;28;20037;-67
2023/06/20 04:50:18;;;;;;;15.27;11.50;;;;;;;18.00;100.00;96523.00;5015057;28;20045;-67
2023/06/20 04:52:44;;;;;;;14.73;11.52;;;;;;;18.27;100.00;96527.75;5020971;28;20038;-67
2023/06/20 04:55:10;;;;;;;16.95;10.85;;;;;;;18.26;100.00;96537.28;5015791;28;20041;-69
2023/06/20 04:57:35;;;;;;;16.38;10.40;;;;;;;18.54;100.00;96527.66;5018399;28;20121;-69
2023/06/20 05:00:02;;;;;;;12.65;9.57;;;;;;;18.91;100.00;96528.59;5019827;28;20111;-70
2023/06/20 05:02:28;;;;;;;13.75;9.75;;;;;;;19.31;100.00;96525.81;4998689;28;20499;-70
2023/06/20 05:04:53;;;;;;;12.98;8.65;;;;;;;19.47;100.00;96519.53;5019534;28;20069;-69
2023/06/20 05:07:19;;;;;;;14.75;8.82;;;;;;;19.82;100.00;96523.53;5013913;28;20033;-69
2023/06/20 05:09:44;;;;;;;9.38;7.53;;;;;;;20.30;100.00;96523.97;5017783;28;20064;-69
2023/06/20 05:12:10;;;;;;;11.20;7.43;;;;;;;20.84;100.00;96530.19;5013242;28;20491;-69
2023/06/20 05:14:35;;;;;;;10.90;8.05;;;;;;;21.26;100.00;96533.78;5017436;28;20041;-68
2023/06/20 05:17:01;;;;;;;8.63;6.97;;;;;;;21.02;100.00;96530.47;5029373;28;20052;-68
2023/06/20 05:19:26;;;;;;;8.95;7.75;;;;;;;20.48;100.00;96542.22;5008374;28;20050;-67
2023/06/20 05:21:52;;;;;;;9.85;8.10;;;;;;;21.02;100.00;96536.06;5018232;28;20407;-68
2023/06/20 05:24:17;;;;;;;9.80;7.32;;;;;;;22.03;100.00;96533.88;5009277;28;20191;-68
2023/06/20 05:26:43;;;;;;;9.07;6.85;;;;;;;24.11;100.00;96544.53;5018161;28;20049;-68
2023/06/20 05:29:08;;;;;;;10.15;6.85;;;;;;;26.24;96.37;96540.44;5015610;28;20052;-69
2023/06/20 05:31:39;;;;;;;7.93;5.38;;;;;;;27.75;81.64;96558.06;5010901;28;20128;-70
2023/06/20 05:34:04;;;;;;;11.38;6.32;;;;;;;25.82;90.15;96546.03;5012732;28;20050;-69
2023/06/20 05:36:30;;;;;;;8.93;6.00;;;;;;;23.88;100.00;96549.44;5017344;28;20121;-69
2023/06/20 05:38:58;;;;;;;8.65;6.07;;;;;;;22.85;100.00;96538.78;5010866;28;20053;-68
2023/06/20 05:41:23;;;;;;;10.10;6.78;;;;;;;22.14;100.00;96544.69;4993226;28;20050;-69
2023/06/20 05:43:49;;;;;;;8.25;6.85;;;;;;;22.14;100.00;96536.34;4994386;28;20376;-68
2023/06/20 05:46:14;;;;;;;8.82;6.75;;;;;;;23.72;100.00;96530.84;4979991;28;20073;-68
2023/06/20 05:48:40;;;;;;;8.55;6.40;;;;;;;23.26;100.00;96522.19;4986701;28;20050;-69
2023/06/20 05:51:06;;;;;;;8.57;5.95;;;;;;;23.79;100.00;96518.63;5000409;28;20057;-68
2023/06/20 05:53:32;;;;;;;7.30;5.63;;;;;;;25.49;95.37;96518.72;5003911;28;20499;-69
2023/06/20 05:55:57;;;;;;;9.25;5.50;;;;;;;26.64;83.52;96521.66;5004253;28;20042;-68
2023/06/20 05:58:22;;;;;;;8.70;5.13;;;;;;;26.02;88.17;96517.47;4999516;28;20725;-69
2023/06/20 06:00:49;;;;;;;8.25;5.63;;;;;;;24.89;95.12;96517.34;5004252;28;20805;-71
2023/06/20 06:03:14;;;;;;;7.60;5.00;;;;;;;24.54;96.68;96512.81;4999677;28;20052;-68
2023/06/20 06:05:40;;;;;;;9.10;5.22;;;;;;;24.35;99.76;96508.41;5003124;28;20045;-68
2023/06/20 06:08:06;;;;;;;6.80;5.20;;;;;;;25.73;86.71;96508.38;4999370;28;20064;-68
2023/06/20 06:10:32;;;;;;;7.32;5.10;;;;;;;24.86;94.17;96507.84;5004740;28;20533;-68
2023/06/20 06:12:58;;;;;;;11.05;5.50;;;;;;;25.03;90.88;96513.94;5005642;28;20053;-68
2023/06/20 06:15:23;;;;;;;7.50;5.85;;;;;;;24.40;97.69;96519.75;4998852;28;20050;-69
2023/06/20 06:17:49;;;;;;;9.80;4.90;;;;;;;25.84;88.65;96509.88;5001941;28;20073;-68
2023/06/20 06:20:19;;;;;;;7.05;5.95;;;;;;;23.81;100.00;96504.97;4991826;28;20136;-68
2023/06/20 06:22:45;;;;;;;6.95;5.70;;;;;;;23.39;99.32;96519.31;5003451;28;20044;-68
2023/06/20 06:25:11;;;;;;;8.13;6.30;;;;;;;23.43;100.00;96512.38;5000567;28;20124;-68
2023/06/20 06:27:36;;;;;;;5.85;4.80;;;;;;;25.01;95.73;96516.41;5003048;28;20491;-68
2023/06/20 06:30:03;;;;;;;7.75;5.93;;;;;;;24.07;97.27;96519.50;5001778;28;20042;-68
2023/06/20 06:32:32;;;;;;;9.57;6.05;;;;;;;24.29;96.42;96519.44;5004640;28;20053;-68
2023/06/20 06:34:59;;;;;;;9.00;6.00;;;;;;;23.96;98.34;96514.34;5006605;28;20088;-68
2023/06/20 06:37:26;;;;;;;7.63;5.80;;;;;;;24.29;94.48;96511.03;4998601;28;20857;-68
2023/06/20 06:39:54;;;;;;;7.80;5.57;;;;;;;25.21;86.33;96515.94;4986651;28;20066;-69
2023/06/20 06:42:20;;;;;;;8.50;5.03;;;;;;;26.77;80.19;96510.19;4984837;28;20068;-68
2023/06/20 06:44:45;;;;;;;6.07;4.88;;;;;;;27.40;76.46;96515.75;5003464;28;20046;-69
2023/06/20 06:47:10;;;;;;;7.78;4.25;;;;;;;28.83;66.47;96514.59;4997916;28;20451;-69
2023/06/20 06:49:36;;;;;;;8.05;5.22;;;;;;;27.80;68.29;96511.56;5003853;28;20046;-69
2023/06/20 06:52:01;;;;;;;8.15;4.80;;;;;;;29.13;64.81;96510.31;5001003;28;20045;-68
2023/06/20 06:54:27;;;;;;;7.72;4.68;;;;;;;28.09;65.53;96512.78;5007716;28;20077;-68
2023/06/20 06:56:52;;;;;;;6.95;4.43;;;;;;;28.45;64.13;96516.38;5003404;28;20044;-68
2023/06/20 06:59:18;;;;;;;7.07;4.70;;;;;;;28.38;63.14;96515.53;4998439;28;20057;-68
2023/06/20 07:01:44;;;;;;;7.38;5.22;;;;;;;28.30;64.57;96513.63;5002994;28;20053;-68
2023/06/20 07:04:10;;;;;;;7.70;4.80;;;;;;;28.75;64.12;96500.91;4997847;28;20076;-68
2023/06/20 07:06:35;;;;;;;7.10;4.65;;;;;;;28.81;60.93;96500.22;5002407;28;20086;-69
2023/06/20 07:09:01;;;;;;;5.50;4.32;;;;;;;30.16;57.68;96489.44;5002191;28;20040;-70
2023/06/20 07:11:26;;;;;;;7.57;4.43;;;;;;;29.12;58.26;96496.75;4998460;28;20069;-68
2023/06/20 07:13:51;;;;;;;7.03;5.03;;;;;;;28.87;60.13;96495.44;5002031;28;20053;-67
2023/06/20 07:16:17;;;;;;;5.47;4.50;;;;;;;30.54;54.23;96495.84;4998839;28;20100;-68
2023/06/20 07:18:42;;;;;;;4.85;3.35;;;;;;;32.19;49.60;96495.69;4994618;28;20053;-70
2023/06/20 07:21:08;;;;;;;6.18;3.78;;;;;;;31.43;50.10;96500.28;4997933;28;20046;-70
2023/06/20 07:23:33;;;;;;;6.70;3.88;;;;;;;28.90;59.50;96485.97;5003120;28;20099;-68
2023/06/20 07:25:59;;;;;;;6.88;4.57;;;;;;;27.34;67.57;96484.72;5003109;28;20099;-68
2023/06/20 07:28:26;;;;;;;5.75;3.70;;;;;;;30.17;57.61;96476.88;4997501;28;20391;-69
2023/06/20 07:30:52;;;;;;;9.75;6.50;;;;;;;29.31;57.29;96475.41;5002470;28;20153;-68
2023/06/20 07:33:18;;;;;;;6.95;5.18;;;;;;;28.16;60.86;96476.59;4997616;28;20520;-68
2023/06/20 07:35:43;;;;;;;6.75;4.82;;;;;;;28.62;60.63;96480.78;5001983;28;20073;-69
2023/06/20 07:38:08;;;;;;;5.75;4.50;;;;;;;27.62;66.59;96479.56;4999813;28;20137;-69
2023/06/20 07:40:34;;;;;;;5.88;4.63;;;;;;;27.94;64.92;96476.25;5004342;28;20128;-68
2023/06/20 07:42:59;;;;;;;9.32;4.85;;;;;;;29.06;59.48;96470.50;4997768;28;20050;-68
2023/06/20 07:45:24;;;;;;;7.45;4.60;;;;;;;28.43;59.12;96468.97;4982080;28;20050;-68
2023/06/20 07:47:50;;;;;;;8.43;4.55;;;;;;;29.43;57.63;96464.25;4983664;28;20039;-68
2023/06/20 07:50:16;;;;;;;6.55;5.15;;;;;;;28.11;60.83;96468.03;4992474;28;20037;-67
2023/06/20 07:52:41;;;;;;;7.18;4.85;;;;;;;27.46;60.71;96466.00;5001730;28;20497;-68
2023/06/20 07:55:07;;;;;;;7.10;4.88;;;;;;;27.49;59.21;96461.44;4997278;28;20046;-68
2023/06/20 07:57:32;;;;;;;7.00;4.88;;;;;;;28.58;55.45;96458.47;5001221;28;20034;-67
2023/06/20 07:59:58;;;;;;;12.40;7.97;;;;;;;27.18;58.75;96465.50;5001936;28;20061;-69
2023/06/20 08:02:24;;;;;;;8.40;4.60;;;;;;;27.27;58.51;96454.94;4997170;28;20042;-69
2023/06/20 08:04:49;;;;;;;9.32;4.63;;;;;;;28.19;54.02;96449.47;5001406;28;20045;-69
2023/06/20 08:07:15;;;;;;;7.57;4.78;;;;;;;27.93;54.87;96447.34;4996730;28;20140;-69
2023/06/20 08:09:40;;;;;;;6.70;4.22;;;;;;;28.29;55.46;96444.47;5000979;28;20041;-69
2023/06/20 08:12:06;;;;;;;5.80;4.20;;;;;;;28.11;53.29;96451.94;4996599;28;20041;-70
2023/06/20 08:14:31;;;;;;;7.50;4.55;;;;;;;27.90;54.43;96447.50;5001790;28;20103;-69
2023/06/20 08:16:57;;;;;;;7.03;4.25;;;;;;;28.06;53.71;96446.22;5002788;28;20040;-70
2023/06/20 08:19:22;;;;;;;8.68;4.30;;;;;;;28.88;51.18;96440.59;4996476;28;20144;-69
2023/06/20 08:21:47;;;;;;;6.53;4.10;;;;;;;27.95;52.71;96446.84;4993744;28;20049;-69
2023/06/20 08:24:13;;;;;;;10.65;5.93;;;;;;;27.73;53.20;96441.63;4997805;28;20403;-69
2023/06/20 08:26:38;;;;;;;5.50;4.20;;;;;;;27.18;56.45;96429.72;5001879;28;20179;-69
2023/06/20 08:29:04;;;;;;;7.57;5.10;;;;;;;28.05;52.94;96431.38;4998797;28;20046;-69
2023/06/20 08:31:36;;;;;;;6.15;4.43;;;;;;;28.15;52.76;96426.41;5000790;28;20538;-69
2023/06/20 08:34:03;;;;;;;9.60;4.88;;;;;;;27.95;52.18;96410.25;5000913;28;20798;-68
2023/06/20 08:36:28;;;;;;;5.75;4.15;;;;;;;28.06;53.08;96410.41;4980495;28;20078;-68
2023/06/20 08:38:54;;;;;;;5.70;4.30;;;;;;;28.65;52.35;96406.56;4981716;28;20147;-69
2023/06/20 08:41:24;;;;;;;6.30;4.50;;;;;;;29.85;49.45;96401.47;4959250;28;20043;-69
2023/06/20 08:43:49;;;;;;;6.07;4.28;;;;;;;28.24;51.86;96406.53;4972334;28;20045;-68
2023/06/20 08:46:15;;;;;;;8.25;4.72;;;;;;;28.08;52.42;96393.03;4978084;28;20118;-69
2023/06/20 08:48:41;;;;;;;10.52;4.80;;;;;;;28.44;52.14;96391.69;4986282;28;20064;-68
2023/06/20 08:51:07;;;;;;;6.07;4.57;;;;;;;27.53;55.08;96395.31;4976747;28;20448;-69
2023/06/20 08:53:34;;;;;;;7.00;3.88;;;;;;;28.63;51.90;96388.56;4981700;28;20145;-68
2023/06/20 08:56:01;;;;;;;8.00;3.92;;;;;;;29.65;47.09;96387.47;4981397;28;20043;-69
2023/06/20 08:58:26;;;;;;;5.80;3.83;;;;;;;29.61;46.20;96396.16;4976914;28;20054;-69
2023/06/20 09:00:52;;;;;;;8.80;3.90;;;;;;;30.02;45.60;96404.41;4981460;28;20042;-68
2023/06/20 09:03:17;;;;;;;8.57;4.05;;;;;;;30.35;45.28;96405.88;4977332;28;20039;-68
2023/06/20 09:05:45;;;;;;;8.55;3.97;;;;;;;31.00;43.41;96401.47;4981331;28;20070;-68
2023/06/20 09:08:14;;;;;;;7.72;4.28;;;;;;;31.62;41.63;96399.47;4976951;28;20068;-67
2023/06/20 09:10:40;;;;;;;6.38;3.92;;;;;;;28.97;47.34;96389.69;4981529;28;20034;-67
2023/06/20 09:13:06;;;;;;;6.53;4.20;;;;;;;30.22;44.96;96383.72;4976862;28;20041;-68
2023/06/20 09:15:33;;;;;;;9.13;4.30;;;;;;;31.21;42.82;96396.34;4981478;28;20058;-68
2023/06/20 09:18:01;;;;;;;9.98;4.90;;;;;;;31.63;44.98;96395.31;4982390;28;20401;-68
2023/06/20 09:20:28;;;;;;;13.00;4.78;;;;;;;31.05;45.20;96390.16;4984142;28;20065;-68
2023/06/20 09:22:54;;;;;;;7.90;4.90;;;;;;;31.26;44.73;96389.94;5005820;28;20120;-68
2023/06/20 09:25:25;;;;;;;8.65;4.57;;;;;;;31.11;44.38;96380.91;5000946;28;20145;-68
2023/06/20 09:27:52;;;;;;;10.70;4.50;;;;;;;31.25;44.25;96379.88;5004854;28;20045;-68
2023/06/20 09:30:17;;;;;;;6.50;4.45;;;;;;;31.29;44.87;96371.91;5000277;28;20125;-70
2023/06/20 09:32:43;;;;;;;8.55;4.88;;;;;;;31.58;44.56;96378.34;5003161;28;20121;-69
2023/06/20 09:35:11;;;;;;;10.35;5.03;;;;;;;31.48;44.31;96377.84;5000199;28;20054;-70
2023/06/20 09:37:37;;;;;;;5.82;4.93;;;;;;;31.54;44.97;96372.19;5004546;28;20345;-70
2023/06/20 09:40:10;;;;;;;7.13;4.50;;;;;;;32.40;42.67;96374.31;5003057;28;20046;-69
2023/06/20 09:42:43;;;;;;;7.25;4.80;;;;;;;32.53;41.73;96370.88;5004576;28;20107;-69
2023/06/20 09:45:11;;;;;;;8.65;4.63;;;;;;;31.92;42.99;96366.97;4995123;28;20411;-69
2023/06/20 09:47:38;;;;;;;6.55;4.63;;;;;;;31.64;44.48;96370.63;5004857;28;20034;-70
2023/06/20 09:50:05;;;;;;;9.98;4.95;;;;;;;31.85;43.72;96365.44;4986835;28;20045;-67
2023/06/20 09:52:40;;;;;;;7.57;4.97;;;;;;;32.22;42.75;96357.91;4991159;28;20045;-69
2023/06/20 09:55:09;;;;;;;8.35;5.22;;;;;;;32.29;42.35;96360.19;4998758;28;20080;-68
2023/06/20 09:57:42;;;;;;;;;;;;;;;31.76;43.38;96351.56;5023802;28;20042;-69
2023/06/20 10:00:14;;;;;;;8.57;5.10;;;;;;;30.73;44.94;96352.03;4993637;28;19921;-68
2023/06/20 10:02:47;;;;;;;10.07;4.88;;;;;;;31.33;43.97;96351.84;4994121;28;20041;-68
2023/06/20 10:05:17;;;;;;;10.23;5.38;;;;;;;31.73;43.22;96349.75;4998882;28;20128;-68
2023/06/20 10:07:44;;;;;;;10.57;4.80;;;;;;;32.23;43.38;96336.75;5003416;28;20038;-69
2023/06/20 10:10:11;;;;;;;6.32;5.07;;;;;;;32.35;42.40;96338.25;4999318;28;20038;-69
2023/06/20 10:12:38;;;;;;;6.63;4.57;;;;;;;33.18;41.21;96338.28;5004246;28;20038;-69
2023/06/20 10:15:07;;;;;;;10.25;5.28;;;;;;;33.14;40.89;96343.47;5000186;28;20041;-69
2023/06/20 10:17:43;;;;;;;5.82;4.05;;;;;;;32.93;40.30;96331.75;5004196;28;20049;-67
2023/06/20 10:20:23;;;;;;;7.15;4.30;;;;;;;32.73;39.57;96333.66;4999641;28;20450;-68
2023/06/20 10:22:48;;;;;;;7.93;4.10;;;;;;;32.93;39.08;96332.50;5002778;28;20050;-69
2023/06/20 10:25:15;;;;;;;6.93;3.83;;;;;;;33.12;38.65;96338.31;4998897;28;20068;-69
2023/06/20 10:27:54;;;;;;;7.32;3.58;;;;;;;31.95;39.78;96329.13;5003704;28;20069;-69
2023/06/20 10:30:53;;;;;;;8.75;4.00;;;;;;;31.84;40.97;96327.09;4999505;28;20384;-68
2023/06/20 10:33:25;;;;;;;8.63;4.20;;;;;;;33.02;38.21;96324.97;4997947;28;20419;-68
2023/06/20 10:36:08;;;;;;;7.50;5.45;;;;;;;32.78;41.59;96320.00;5003436;28;20395;-68
2023/06/20 10:38:57;;;;;;;12.18;4.95;;;;;;;32.49;41.47;96317.31;5003936;28;20136;-68
2023/06/20 10:41:27;;;;;;;11.57;4.45;;;;;;;32.50;41.37;96318.06;4997635;28;20932;-68
2023/06/20 10:43:56;;;;;;;8.05;3.90;;;;;;;32.03;39.54;96310.28;5003900;28;20052;-68
2023/06/20 10:46:41;;;;;;;6.28;4.00;;;;;;;31.58;40.47;96307.59;4999323;28;20042;-68
2023/06/20 10:49:09;;;;;;;7.63;3.45;;;;;;;31.34;41.04;96303.25;4998636;28;20070;-68
2023/06/20 10:51:45;;;;;;;6.80;3.67;;;;;;;31.67;39.45;96310.16;5002676;28;20034;-68
2023/06/20 10:54:12;;;;;;;11.00;4.43;;;;;;;31.58;39.14;96310.44;4998869;28;20046;-68
2023/06/20 10:56:37;;;;;;;10.10;4.50;;;;;;;32.22;37.83;96310.50;5005358;28;20042;-68
2023/06/20 10:59:29;;;;;;;8.35;3.40;;;;;;;32.47;37.79;96308.56;5001389;28;20060;-68
2023/06/20 11:01:54;;;;;;;6.32;3.63;;;;;;;32.62;37.55;96313.91;4993568;28;20515;-68
2023/06/20 11:04:20;;;;;;;6.85;5.35;;;;;;;32.89;40.92;96300.06;5000316;28;20052;-68
2023/06/20 11:06:47;;;;;;;6.40;4.70;;;;;;;33.30;40.33;96299.25;5002934;28;20455;-68
2023/06/20 11:09:20;;;;;;;8.55;4.28;;;;;;;33.47;39.29;96294.16;4997713;28;20045;-68
2023/06/20 11:11:47;;;;;;;10.65;4.35;;;;;;;33.66;37.38;96299.94;5002587;28;20183;-68
2023/06/20 11:14:14;;;;;;;13.75;5.18;;;;;;;33.80;36.71;96295.13;4998347;28;20515;-68
2023/06/20 11:16:41;;;;;;;9.98;3.90;;;;;;;32.30;38.76;96290.88;5002518;28;20179;-68
2023/06/20 11:19:07;;;;;;;9.18;4.20;;;;;;;33.34;38.15;96289.13;4998708;28;20065;-68
2023/06/20 11:21:33;;;;;;;10.57;4.22;;;;;;;32.36;38.08;96283.91;5002822;28;20507;-68
2023/06/20 11:24:03;;;;;;;11.63;3.85;;;;;;;32.83;37.34;96280.25;5003887;28;20041;-69
2023/06/20 11:26:30;;;;;;;8.52;3.70;;;;;;;32.82;37.37;96270.19;5002818;28;20041;-68
2023/06/20 11:29:03;;;;;;;11.10;4.43;;;;;;;32.83;37.94;96271.75;5002710;28;20045;-69